Terminal Aerodrome Forecast
Issued by NWS

Home | Current Version | Previous Version | Text Only | Print | Product List | Glossary On
Versions: 1 2 3 4 5 6 7 8 9 10 11 12 13 14 15 16 17 18 19 20 21 22 23 24 25 26 27 28 29 30 31 32 33 34 35 36 37 38 39 40 41 42 43 44 45 46 47 48 49
794
FTUS45 KBOU 311740
TAFAPA
TAF
KAPA 311740Z 3118/0118 08008KT P6SM SCT025 BKN070
     FM312100 07012KT P6SM VCTS SCT030CB BKN060
      TEMPO 3122/0102 5SM -SHRA OVC030
     FM010300 13007KT P6SM SCT025 BKN040 PROB30 0103/0105 -SHRA
     FM011000 18007KT P6SM SCT015 BKN040
     FM011500 12008KT P6SM SCT050 SCT080=

USA.gov is the U.S. government's official web portal to all federal, state and local government web resources and services.